Terminal Aerodrome Forecast
Issued by NWS

Home | Current Version | Previous Version | Text Only | Print | Product List | Glossary On
Versions: 1 2 3 4 5 6 7 8 9 10 11 12 13 14 15 16 17 18 19 20 21 22 23 24 25 26 27 28
000
FTUS45 KREV 051126
TAFTRK
TAF
KTRK 051126Z 0512/0612 00000KT 1/2SM FG OVC001
     FM051400 VRB03KT P6SM FEW008 FEW100 SCT180
     FM051700 20005KT P6SM SCT100 SCT180
     FM052000 25008KT P6SM SCT090 BKN150
     FM060400 VRB03KT P6SM SCT110 BKN180=

USA.gov is the U.S. government's official web portal to all federal, state and local government web resources and services.